Time;durP1;ratioP1;P1;durP2;ratioP2;P2;SDS_P1;SDS_P2;PMS_P1;PMS_P2;Temp;Humidity;BMP_temperature;BMP_pressure;BME280_temperature;BME280_humidity;BME280_pressure;Samples;Min_cycle;Max_cycle;Signal;HPM_P1;HPM_P2
2022/06/08 00:01:50;;;;;;;0.95;0.50;;;8.00;99.90;;;;;;5035159;28;20033;-80
2022/06/08 00:04:22;;;;;;;0.57;0.50;;;8.00;99.90;;;;;;5033946;28;20026;-73
2022/06/08 00:06:52;;;;;;;0.52;0.40;;;8.00;99.90;;;;;;5035324;28;20108;-79
2022/06/08 00:09:20;;;;;;;1.48;0.95;;;8.10;99.90;;;;;;5034764;28;20364;-71
2022/06/08 00:11:47;;;;;;;1.42;0.55;;;8.20;99.90;;;;;;5033746;28;20021;-75
2022/06/08 00:14:16;;;;;;;0.90;0.50;;;8.30;99.90;;;;;;5034783;28;20566;-76
2022/06/08 00:16:43;;;;;;;1.42;0.40;;;8.40;99.90;;;;;;5048360;28;20029;-76
2022/06/08 00:19:11;;;;;;;1.60;0.45;;;8.40;99.90;;;;;;5053760;28;20047;-76
2022/06/08 00:21:39;;;;;;;4.10;0.70;;;8.50;99.90;;;;;;5055346;28;20385;-73
2022/06/08 00:24:06;;;;;;;0.45;0.30;;;8.50;99.90;;;;;;5054221;28;20029;-72
2022/06/08 00:26:36;;;;;;;0.80;0.40;;;8.50;99.90;;;;;;5053649;28;20111;-77
2022/06/08 00:29:05;;;;;;;1.50;0.68;;;8.50;99.90;;;;;;5054047;28;20025;-77
2022/06/08 00:31:32;;;;;;;0.68;0.50;;;8.50;99.90;;;;;;5054691;28;20028;-75
2022/06/08 00:34:05;;;;;;;0.85;0.50;;;8.60;99.90;;;;;;5054939;28;20105;-81
2022/06/08 00:36:32;;;;;;;0.40;0.38;;;8.60;99.90;;;;;;5054567;28;20029;-82
2022/06/08 00:39:00;;;;;;;1.50;0.60;;;8.70;99.90;;;;;;5054543;28;20029;-72
2022/06/08 00:42:07;;;;;;;1.58;0.50;;;8.70;99.90;;;;;;5054665;28;20060;-77
2022/06/08 00:45:00;;;;;;;0.60;0.40;;;8.80;99.90;;;;;;5034169;28;20475;-78
2022/06/08 00:47:51;;;;;;;1.08;0.50;;;8.90;99.90;;;;;;5054634;28;20497;-77
2022/06/08 00:50:29;;;;;;;1.50;0.50;;;8.90;99.90;;;;;;5053861;28;20025;-75
2022/06/08 00:52:58;;;;;;;1.10;0.70;;;9.00;99.90;;;;;;5052057;28;20544;-80
2022/06/08 00:55:30;;;;;;;0.30;0.30;;;9.00;99.90;;;;;;5054053;28;20029;-71
2022/06/08 00:58:05;;;;;;;0.68;0.45;;;9.00;99.90;;;;;;5051766;28;20044;-80
2022/06/08 01:00:39;;;;;;;0.45;0.30;;;9.10;99.90;;;;;;5052250;28;20024;-72
2022/06/08 01:03:09;;;;;;;0.40;0.40;;;9.20;99.90;;;;;;5052950;28;20053;-79
2022/06/08 01:05:37;;;;;;;0.60;0.40;;;9.30;99.90;;;;;;5054036;28;20033;-81
2022/06/08 01:08:35;;;;;;;0.20;0.20;;;9.30;99.90;;;;;;5054016;28;20033;-81
2022/06/08 01:11:21;;;;;;;1.40;0.40;;;9.40;99.90;;;;;;5053974;28;20013;-80
2022/06/08 01:13:48;;;;;;;0.50;0.40;;;9.50;99.90;;;;;;5052154;28;20025;-80
2022/06/08 01:16:16;;;;;;;0.63;0.45;;;9.60;99.90;;;;;;5051647;28;20013;-72
2022/06/08 01:18:43;;;;;;;0.70;0.52;;;9.60;99.90;;;;;;5051922;28;20039;-75
2022/06/08 01:21:23;;;;;;;0.65;0.30;;;9.60;99.90;;;;;;5051972;28;20025;-78
2022/06/08 01:24:00;;;;;;;1.55;0.30;;;9.70;99.90;;;;;;5052102;28;20065;-78
2022/06/08 01:26:44;;;;;;;1.05;0.55;;;9.80;99.90;;;;;;5052508;28;20561;-80
2022/06/08 01:29:14;;;;;;;0.30;0.30;;;9.90;99.90;;;;;;5052657;28;20057;-76
2022/06/08 01:32:02;;;;;;;0.45;0.45;;;9.90;99.90;;;;;;5053721;28;20104;-71
2022/06/08 01:34:38;;;;;;;0.30;0.30;;;10.00;99.90;;;;;;5054052;28;20051;-72
2022/06/08 01:37:25;;;;;;;0.60;0.60;;;10.00;99.90;;;;;;5053666;28;20421;-71
2022/06/08 01:40:09;;;;;;;;;;;10.00;99.90;;;;;;5054215;28;20475;-72
2022/06/08 01:42:39;;;;;;;1.65;0.30;;;10.10;99.90;;;;;;5053752;28;19940;-71
2022/06/08 01:45:33;;;;;;;0.57;0.30;;;10.10;99.90;;;;;;5052606;28;20029;-72
2022/06/08 01:48:21;;;;;;;0.60;0.35;;;10.20;99.90;;;;;;5053456;28;20478;-71
2022/06/08 01:51:10;;;;;;;0.20;0.20;;;10.20;99.90;;;;;;5054026;28;20021;-71
2022/06/08 01:53:48;;;;;;;0.20;0.20;;;10.20;99.90;;;;;;5053593;28;20040;-73
2022/06/08 01:56:47;;;;;;;0.30;0.30;;;10.20;99.90;;;;;;5053557;28;20029;-71
2022/06/08 01:59:46;;;;;;;0.77;0.40;;;10.30;99.90;;;;;;5047937;28;20036;-73
2022/06/08 02:02:23;;;;;;;0.32;0.30;;;10.40;99.90;;;;;;5030565;28;20033;-74
2022/06/08 02:05:17;;;;;;;0.45;0.30;;;10.40;99.90;;;;;;5053392;28;20047;-71
2022/06/08 02:08:02;;;;;;;0.20;0.20;;;10.50;99.90;;;;;;5053448;28;20393;-80
2022/06/08 02:10:32;;;;;;;0.30;0.30;;;10.50;99.90;;;;;;5053629;28;20116;-80
2022/06/08 02:13:06;;;;;;;0.90;0.38;;;10.60;99.90;;;;;;5053299;28;20021;-79
2022/06/08 02:15:47;;;;;;;3.50;0.40;;;10.60;99.90;;;;;;5053379;28;20025;-78
2022/06/08 02:18:31;;;;;;;0.22;0.22;;;10.70;99.90;;;;;;5053079;28;20104;-79
2022/06/08 02:21:19;;;;;;;0.50;0.30;;;10.90;99.90;;;;;;5053527;28;20028;-79
2022/06/08 02:23:59;;;;;;;4.57;0.40;;;10.90;99.90;;;;;;5052444;28;20021;-79
2022/06/08 02:26:35;;;;;;;0.82;0.40;;;11.00;99.90;;;;;;5053251;28;20033;-80
2022/06/08 02:29:27;;;;;;;0.30;0.30;;;11.00;99.90;;;;;;5056140;28;20421;-79
2022/06/08 02:35:07;;;;;;;1.10;0.40;;;11.10;99.90;;;;;;5057413;28;20032;-79
2022/06/08 02:37:36;;;;;;;1.05;0.20;;;11.20;99.90;;;;;;5057223;28;20041;-80
2022/06/08 02:40:22;;;;;;;0.30;0.30;;;11.30;99.90;;;;;;5053370;28;20446;-80
2022/06/08 02:42:57;;;;;;;;;;;11.20;99.90;;;;;;5053436;28;20616;-79
2022/06/08 02:45:29;;;;;;;4.55;0.40;;;11.30;99.90;;;;;;5046983;28;19909;-80
2022/06/08 02:48:03;;;;;;;0.55;0.30;;;11.30;99.90;;;;;;5046428;28;20388;-78
2022/06/08 02:50:32;;;;;;;0.68;0.55;;;11.30;99.90;;;;;;5039002;28;20112;-78
2022/06/08 02:53:31;;;;;;;1.17;0.30;;;11.40;99.90;;;;;;5049939;28;20037;-77
2022/06/08 02:56:04;;;;;;;0.93;0.30;;;11.40;99.90;;;;;;5008177;28;20072;-82
2022/06/08 02:58:47;;;;;;;0.30;0.28;;;11.50;99.90;;;;;;5056043;28;20017;-79
2022/06/08 03:01:29;;;;;;;1.42;0.65;;;11.40;99.90;;;;;;5053732;28;20021;-81
2022/06/08 03:04:03;;;;;;;0.30;0.30;;;11.40;99.90;;;;;;5054030;28;20047;-81
2022/06/08 03:06:40;;;;;;;3.60;0.40;;;11.50;99.90;;;;;;5056044;28;20021;-81
2022/06/08 03:09:13;;;;;;;0.40;0.30;;;11.50;99.90;;;;;;5055830;28;20747;-78
2022/06/08 03:11:45;;;;;;;1.00;0.45;;;11.50;99.90;;;;;;5056343;28;20033;-82
2022/06/08 03:14:16;;;;;;;0.47;0.32;;;11.60;99.90;;;;;;5056463;28;20488;-81
2022/06/08 03:16:57;;;;;;;0.85;0.32;;;11.60;99.90;;;;;;5056242;28;20036;-82
2022/06/08 03:19:26;;;;;;;0.63;0.30;;;11.70;99.90;;;;;;5056284;28;20017;-80
2022/06/08 03:21:54;;;;;;;0.63;0.30;;;11.60;99.90;;;;;;5055878;28;20036;-84
2022/06/08 03:24:23;;;;;;;0.80;0.40;;;11.60;99.90;;;;;;5056232;28;20063;-81
2022/06/08 03:26:54;;;;;;;0.57;0.57;;;11.60;99.90;;;;;;5056282;28;20036;-81
2022/06/08 03:29:22;;;;;;;0.50;0.30;;;11.60;99.90;;;;;;5056238;28;20107;-80
2022/06/08 03:31:50;;;;;;;1.00;0.30;;;11.60;99.90;;;;;;5054969;28;20054;-81
2022/06/08 03:34:18;;;;;;;0.47;0.45;;;11.60;99.90;;;;;;5056251;28;20086;-83
2022/06/08 03:36:46;;;;;;;1.77;0.32;;;11.60;99.90;;;;;;5055745;28;20041;-81
2022/06/08 03:39:13;;;;;;;4.57;0.40;;;11.70;99.90;;;;;;5055787;28;20110;-82
2022/06/08 03:41:41;;;;;;;0.80;0.40;;;11.70;99.90;;;;;;5056131;28;20363;-81
2022/06/08 03:44:09;;;;;;;1.65;0.40;;;11.70;99.90;;;;;;5055624;28;20021;-81
2022/06/08 03:46:40;;;;;;;0.22;0.20;;;11.70;99.90;;;;;;5056116;28;20037;-80
2022/06/08 03:49:09;;;;;;;1.23;0.40;;;11.80;99.90;;;;;;5055909;28;20013;-81
2022/06/08 03:51:40;;;;;;;0.30;0.30;;;11.90;99.90;;;;;;5055908;28;20024;-80
2022/06/08 03:54:18;;;;;;;0.30;0.20;;;11.90;99.90;;;;;;5055959;28;20017;-81
2022/06/08 03:56:50;;;;;;;0.60;0.32;;;11.90;99.90;;;;;;5055789;28;20025;-81
2022/06/08 03:59:18;;;;;;;0.40;0.30;;;12.00;99.90;;;;;;5052282;28;20107;-80
2022/06/08 04:01:45;;;;;;;0.50;0.30;;;12.00;99.90;;;;;;5055581;28;20079;-81
2022/06/08 04:04:13;;;;;;;0.20;0.20;;;12.00;99.90;;;;;;5055563;28;20481;-80
2022/06/08 04:06:40;;;;;;;1.38;0.22;;;11.90;99.90;;;;;;5055088;28;20079;-80
2022/06/08 04:09:08;;;;;;;0.75;0.35;;;11.90;99.90;;;;;;5055408;28;20029;-81
2022/06/08 04:11:35;;;;;;;0.40;0.40;;;11.80;99.90;;;;;;5055193;28;20032;-82
2022/06/08 04:14:03;;;;;;;3.33;0.32;;;11.80;99.90;;;;;;5055192;28;20067;-83
2022/06/08 04:16:31;;;;;;;0.30;0.20;;;11.70;99.90;;;;;;5054780;28;20108;-81
2022/06/08 04:18:58;;;;;;;0.80;0.30;;;11.70;99.90;;;;;;5055049;28;20104;-80
2022/06/08 04:21:26;;;;;;;0.30;0.30;;;11.80;99.90;;;;;;5054991;28;20528;-80
2022/06/08 04:23:54;;;;;;;0.65;0.28;;;11.80;99.90;;;;;;5055078;28;20025;-80
2022/06/08 04:26:23;;;;;;;2.38;0.32;;;11.70;99.90;;;;;;5054725;28;20037;-78
2022/06/08 04:28:50;;;;;;;0.70;0.40;;;11.70;99.90;;;;;;5055081;28;20482;-82
2022/06/08 04:31:17;;;;;;;1.85;0.30;;;11.80;99.90;;;;;;5055008;28;20025;-81
2022/06/08 04:33:45;;;;;;;0.35;0.30;;;11.80;99.90;;;;;;5055002;28;20025;-75
2022/06/08 04:36:14;;;;;;;0.52;0.30;;;11.80;99.90;;;;;;5054760;28;20067;-83
2022/06/08 04:38:41;;;;;;;0.20;0.20;;;11.80;99.90;;;;;;5053623;28;20061;-78
2022/06/08 04:41:09;;;;;;;0.93;0.35;;;11.80;99.90;;;;;;5054474;28;20032;-81
2022/06/08 04:43:37;;;;;;;0.77;0.30;;;11.80;99.90;;;;;;5054029;28;20112;-79
2022/06/08 04:46:05;;;;;;;0.98;0.30;;;11.80;99.90;;;;;;5054033;28;20032;-78
2022/06/08 04:48:32;;;;;;;0.80;0.30;;;11.80;99.90;;;;;;5054076;28;20039;-78
2022/06/08 04:50:59;;;;;;;0.30;0.30;;;11.80;99.90;;;;;;5053822;28;20024;-78
2022/06/08 04:53:27;;;;;;;2.38;0.38;;;11.80;99.90;;;;;;5054392;28;20104;-78
2022/06/08 04:55:54;;;;;;;0.30;0.30;;;11.80;99.90;;;;;;5054366;28;20060;-78
2022/06/08 04:58:26;;;;;;;0.40;0.40;;;11.80;99.90;;;;;;5052789;28;20032;-80
2022/06/08 05:00:54;;;;;;;0.30;0.30;;;11.80;99.90;;;;;;5054326;28;20017;-79
2022/06/08 05:03:22;;;;;;;1.40;0.40;;;11.80;99.90;;;;;;5054388;28;20032;-78
2022/06/08 05:05:49;;;;;;;0.73;0.30;;;11.80;99.90;;;;;;5054190;28;20025;-76
2022/06/08 05:08:18;;;;;;;1.58;0.40;;;11.80;99.90;;;;;;5053911;28;20032;-77
2022/06/08 05:10:46;;;;;;;0.40;0.28;;;11.90;99.90;;;;;;5054127;28;20039;-77
2022/06/08 05:13:14;;;;;;;0.47;0.20;;;11.80;99.90;;;;;;5054043;28;20055;-77
2022/06/08 05:15:43;;;;;;;1.85;0.32;;;11.80;99.90;;;;;;5053654;28;20017;-75
2022/06/08 05:18:12;;;;;;;0.30;0.30;;;11.70;99.90;;;;;;5052719;28;20501;-75
2022/06/08 05:20:43;;;;;;;1.17;0.30;;;11.60;99.90;;;;;;5053887;28;20482;-75
2022/06/08 05:23:18;;;;;;;1.15;0.40;;;11.60;99.90;;;;;;5053344;28;20082;-74
2022/06/08 05:25:46;;;;;;;0.82;0.47;;;11.50;99.90;;;;;;5051540;28;20048;-75
2022/06/08 05:28:14;;;;;;;0.50;0.30;;;11.50;99.90;;;;;;5053359;28;20029;-75
2022/06/08 05:30:43;;;;;;;1.65;0.20;;;11.50;99.90;;;;;;5050937;28;20096;-74
2022/06/08 05:33:12;;;;;;;0.20;0.20;;;11.50;99.90;;;;;;5053309;28;20478;-75
2022/06/08 05:35:40;;;;;;;0.50;0.30;;;11.50;99.90;;;;;;5052021;28;20436;-74
2022/06/08 05:38:08;;;;;;;0.82;0.22;;;11.40;99.90;;;;;;5052838;28;20051;-76
2022/06/08 05:40:37;;;;;;;0.30;0.30;;;11.40;99.90;;;;;;5053163;28;20067;-76
2022/06/08 05:43:10;;;;;;;0.55;0.47;;;11.40;99.90;;;;;;5052768;28;20021;-77
2022/06/08 05:45:39;;;;;;;0.32;0.32;;;11.40;99.90;;;;;;5053182;28;20095;-76
2022/06/08 05:48:08;;;;;;;0.77;0.40;;;11.40;99.90;;;;;;5050061;28;20382;-75
2022/06/08 05:50:36;;;;;;;1.15;0.60;;;11.40;99.90;;;;;;5052617;28;20029;-75
2022/06/08 05:53:04;;;;;;;0.40;0.30;;;11.40;99.90;;;;;;5052635;28;20053;-75
2022/06/08 05:55:32;;;;;;;0.75;0.40;;;11.40;99.90;;;;;;5052709;28;20478;-74
2022/06/08 05:57:59;;;;;;;0.50;0.30;;;11.30;99.90;;;;;;5052451;28;20021;-76
2022/06/08 06:00:30;;;;;;;0.38;0.30;;;11.20;99.90;;;;;;5052937;28;20401;-74
2022/06/08 06:02:59;;;;;;;3.03;0.30;;;11.20;99.90;;;;;;5052710;28;20497;-75
2022/06/08 06:05:30;;;;;;;0.75;0.30;;;11.20;99.90;;;;;;5052784;28;20037;-74
2022/06/08 06:08:01;;;;;;;1.33;0.40;;;11.20;99.90;;;;;;5052635;28;20029;-75
2022/06/08 06:10:31;;;;;;;0.55;0.30;;;11.10;99.90;;;;;;5052731;28;20021;-76
2022/06/08 06:12:59;;;;;;;0.90;0.43;;;11.10;99.90;;;;;;5051396;28;20355;-75
2022/06/08 06:15:27;;;;;;;0.63;0.40;;;11.00;99.90;;;;;;5052729;28;20067;-75
2022/06/08 06:17:54;;;;;;;4.35;0.85;;;11.00;99.90;;;;;;5052144;28;20096;-75
2022/06/08 06:20:22;;;;;;;0.30;0.30;;;11.00;99.90;;;;;;5050207;28;20021;-77
2022/06/08 06:22:50;;;;;;;1.20;0.47;;;10.90;99.90;;;;;;5052268;28;20021;-76
2022/06/08 06:25:17;;;;;;;0.40;0.32;;;10.80;99.90;;;;;;5052470;28;20386;-76
2022/06/08 06:27:45;;;;;;;0.32;0.30;;;10.80;99.90;;;;;;5052372;28;20494;-76
2022/06/08 06:30:14;;;;;;;0.47;0.30;;;10.70;99.90;;;;;;5052674;28;20017;-75
2022/06/08 06:32:42;;;;;;;0.82;0.55;;;10.70;99.90;;;;;;5049749;28;20021;-75
2022/06/08 06:35:22;;;;;;;1.92;0.63;;;10.70;99.90;;;;;;5052060;28;20059;-75
2022/06/08 06:37:51;;;;;;;1.85;0.50;;;10.60;99.90;;;;;;5050232;28;20041;-73
2022/06/08 06:40:18;;;;;;;1.77;0.60;;;10.50;99.90;;;;;;5052036;28;20021;-74
2022/06/08 06:42:46;;;;;;;0.77;0.60;;;10.50;99.90;;;;;;5052051;28;20457;-75
2022/06/08 06:45:15;;;;;;;2.17;0.50;;;10.50;99.90;;;;;;5052060;28;20021;-77
2022/06/08 06:47:42;;;;;;;0.50;0.40;;;10.40;99.90;;;;;;5049681;28;20429;-73
2022/06/08 06:50:12;;;;;;;0.75;0.50;;;10.40;99.90;;;;;;5052363;28;20078;-73
2022/06/08 06:52:39;;;;;;;0.88;0.47;;;10.30;99.90;;;;;;5052201;28;20489;-80
2022/06/08 06:55:07;;;;;;;1.27;0.65;;;10.20;99.90;;;;;;5050994;28;20057;-77
2022/06/08 06:57:35;;;;;;;0.90;0.63;;;10.20;99.90;;;;;;5051648;28;20040;-76
2022/06/08 07:00:06;;;;;;;0.90;0.63;;;10.10;99.90;;;;;;5050867;28;20013;-71
2022/06/08 07:02:33;;;;;;;0.93;0.70;;;10.00;99.90;;;;;;5052245;28;20104;-73
2022/06/08 07:05:01;;;;;;;1.00;0.60;;;10.00;99.90;;;;;;5046603;28;20017;-75
2022/06/08 07:07:28;;;;;;;0.57;0.45;;;10.00;99.90;;;;;;5051634;28;20095;-80
2022/06/08 07:09:56;;;;;;;0.80;0.40;;;9.80;99.90;;;;;;5051286;28;20029;-81
2022/06/08 07:12:26;;;;;;;0.40;0.40;;;9.80;99.90;;;;;;5051871;28;20021;-78
2022/06/08 07:14:53;;;;;;;1.10;0.47;;;9.80;99.90;;;;;;5055162;28;20036;-81
2022/06/08 07:17:20;;;;;;;0.80;0.60;;;9.80;99.90;;;;;;5052768;28;20028;-79
2022/06/08 07:19:48;;;;;;;0.88;0.57;;;9.70;99.90;;;;;;5055543;28;20474;-78
2022/06/08 07:22:18;;;;;;;2.90;0.55;;;9.70;99.90;;;;;;5057106;28;21004;-80
2022/06/08 07:24:46;;;;;;;2.70;0.70;;;9.60;99.90;;;;;;5063346;28;20021;-80
2022/06/08 07:27:22;;;;;;;0.88;0.50;;;9.60;99.90;;;;;;5054843;28;20097;-79
2022/06/08 07:29:51;;;;;;;0.80;0.45;;;9.60;99.90;;;;;;5054577;28;20100;-80
2022/06/08 07:32:18;;;;;;;1.20;0.70;;;9.50;99.90;;;;;;5053905;28;20051;-78
2022/06/08 07:34:46;;;;;;;1.65;0.52;;;9.60;99.90;;;;;;5054999;28;20106;-77
2022/06/08 07:37:13;;;;;;;3.58;0.63;;;9.50;99.90;;;;;;5054495;28;20402;-78
2022/06/08 07:39:40;;;;;;;1.10;0.70;;;9.50;99.90;;;;;;5052722;28;20020;-77
2022/06/08 07:42:09;;;;;;;0.95;0.45;;;9.50;99.90;;;;;;5055434;28;20029;-79
2022/06/08 07:44:36;;;;;;;1.05;0.50;;;9.40;99.90;;;;;;5054920;28;20032;-74
2022/06/08 07:47:07;;;;;;;2.50;1.00;;;9.30;99.90;;;;;;5056324;28;20036;-75
2022/06/08 07:49:41;;;;;;;2.67;1.15;;;9.30;99.90;;;;;;5055996;28;20127;-79
2022/06/08 07:52:18;;;;;;;1.83;0.80;;;9.30;99.90;;;;;;5054306;28;20155;-79
2022/06/08 07:54:47;;;;;;;1.35;0.60;;;9.20;99.90;;;;;;5053184;28;20576;-80
2022/06/08 07:57:27;;;;;;;1.92;0.80;;;9.20;99.90;;;;;;5054959;28;20096;-80
2022/06/08 07:59:55;;;;;;;1.88;0.75;;;9.20;99.90;;;;;;5054398;28;20017;-80
2022/06/08 08:02:22;;;;;;;2.22;0.70;;;9.10;99.90;;;;;;5052563;28;20021;-79
2022/06/08 08:04:50;;;;;;;2.28;1.15;;;9.10;99.90;;;;;;5051401;28;20072;-81
2022/06/08 08:07:18;;;;;;;3.53;1.27;;;9.10;99.90;;;;;;5051723;28;20037;-81
2022/06/08 08:09:48;;;;;;;4.93;1.67;;;9.00;99.90;;;;;;5051887;28;20379;-79
2022/06/08 08:12:16;;;;;;;2.33;0.85;;;9.00;99.90;;;;;;5051519;28;20021;-80
2022/06/08 08:14:43;;;;;;;5.30;0.98;;;9.00;99.90;;;;;;5047384;28;20010;-80
2022/06/08 08:17:11;;;;;;;5.10;2.33;;;8.90;99.90;;;;;;5050174;28;20087;-80
2022/06/08 08:19:38;;;;;;;4.15;1.80;;;8.90;99.90;;;;;;5055939;28;20100;-80
2022/06/08 08:22:07;;;;;;;1.70;1.00;;;8.90;99.90;;;;;;5058726;28;20021;-75
2022/06/08 08:24:34;;;;;;;2.90;0.88;;;8.80;99.90;;;;;;5051443;28;20025;-76
2022/06/08 08:27:02;;;;;;;2.83;1.10;;;8.70;99.90;;;;;;5053167;28;20020;-76
2022/06/08 08:29:30;;;;;;;1.58;1.08;;;8.70;99.90;;;;;;5053106;28;20021;-79
2022/06/08 08:31:57;;;;;;;2.35;1.10;;;8.70;99.90;;;;;;5053992;28;20021;-81
2022/06/08 08:34:25;;;;;;;3.13;1.17;;;8.70;99.90;;;;;;5050767;28;20458;-80
2022/06/08 08:36:53;;;;;;;3.30;1.30;;;8.70;99.90;;;;;;5052555;28;20068;-80
2022/06/08 08:39:20;;;;;;;1.70;0.90;;;8.60;99.90;;;;;;5052125;28;20061;-77
2022/06/08 08:44:38;;;;;;;2.05;1.00;;;8.50;99.90;;;;;;5054290;28;20083;-74
2022/06/08 08:47:31;;;;;;;2.83;1.58;;;8.50;99.90;;;;;;5050981;28;20028;-80
2022/06/08 08:50:13;;;;;;;2.28;1.42;;;8.40;99.90;;;;;;5049459;28;20104;-75
2022/06/08 08:53:02;;;;;;;2.53;1.27;;;8.40;99.90;;;;;;5053675;28;20030;-79
2022/06/08 08:55:44;;;;;;;4.63;1.90;;;8.30;99.90;;;;;;5050013;28;20041;-81
2022/06/08 08:58:15;;;;;;;1.98;0.95;;;8.30;99.90;;;;;;5048818;28;20021;-81
2022/06/08 09:01:00;;;;;;;2.25;1.00;;;8.20;99.90;;;;;;5050806;28;20462;-80
2022/06/08 09:03:29;;;;;;;1.38;0.75;;;8.30;99.90;;;;;;5052327;28;20021;-80
2022/06/08 09:06:01;;;;;;;2.30;0.98;;;8.20;99.90;;;;;;5051531;28;20528;-81
2022/06/08 09:08:29;;;;;;;2.15;1.10;;;8.20;99.90;;;;;;5050316;28;20029;-79
2022/06/08 09:10:59;;;;;;;2.90;1.27;;;8.10;99.90;;;;;;5052748;28;20087;-80
2022/06/08 09:13:49;;;;;;;3.03;1.10;;;8.10;99.90;;;;;;5051317;28;20017;-80
2022/06/08 09:16:41;;;;;;;2.45;1.23;;;8.00;99.90;;;;;;5052347;28;20032;-73
2022/06/08 09:19:26;;;;;;;3.25;1.05;;;7.90;99.90;;;;;;5050356;28;20009;-79
2022/06/08 09:22:00;;;;;;;2.15;1.33;;;7.90;99.90;;;;;;5050575;28;20056;-75
2022/06/08 09:24:34;;;;;;;1.65;1.10;;;7.90;99.90;;;;;;5048734;28;20425;-75
2022/06/08 09:27:47;;;;;;;2.60;1.63;;;7.90;99.90;;;;;;5051144;28;20482;-81
2022/06/08 09:30:24;;;;;;;2.97;1.13;;;7.80;99.90;;;;;;5050318;28;20043;-75
2022/06/08 09:33:01;;;;;;;2.67;1.20;;;7.70;99.90;;;;;;5051476;28;20135;-80
2022/06/08 09:35:40;;;;;;;1.90;1.15;;;7.70;99.90;;;;;;5052237;28;20029;-82
2022/06/08 09:38:13;;;;;;;2.13;1.10;;;7.60;99.90;;;;;;5051021;28;20037;-81
2022/06/08 09:40:49;;;;;;;2.90;1.50;;;7.60;99.90;;;;;;5050993;28;20025;-81
2022/06/08 09:43:26;;;;;;;5.00;1.38;;;7.50;99.90;;;;;;5050747;28;20063;-81
2022/06/08 09:46:20;;;;;;;3.40;1.30;;;7.50;99.90;;;;;;5050971;28;20160;-82
2022/06/08 09:52:12;;;;;;;2.63;1.25;;;7.50;99.90;;;;;;5051113;28;20043;-81
2022/06/08 09:54:50;;;;;;;2.65;1.30;;;7.50;99.90;;;;;;5050621;28;20035;-81
2022/06/08 09:57:40;;;;;;;1.98;1.23;;;7.40;99.90;;;;;;5051643;28;20103;-82
2022/06/08 10:00:17;;;;;;;2.83;1.20;;;7.50;99.90;;;;;;5050322;28;20032;-76
2022/06/08 10:03:08;;;;;;;6.20;1.23;;;7.40;99.90;;;;;;5051571;28;20013;-81
2022/06/08 10:05:53;;;;;;;2.65;1.25;;;7.40;99.90;;;;;;5051200;28;20029;-81
2022/06/08 10:08:39;;;;;;;1.90;1.45;;;7.30;99.90;;;;;;5051156;28;20029;-81
2022/06/08 10:11:41;;;;;;;1.60;1.13;;;7.30;99.90;;;;;;5049335;28;20025;-81
2022/06/08 10:14:15;;;;;;;1.67;0.95;;;7.30;99.90;;;;;;5051221;28;20079;-81
2022/06/08 10:16:50;;;;;;;3.17;1.10;;;7.30;99.90;;;;;;5051932;28;20032;-81
2022/06/08 10:19:23;;;;;;;1.88;1.08;;;7.30;99.90;;;;;;5049513;28;20057;-81
2022/06/08 10:21:51;;;;;;;2.40;1.27;;;7.20;99.90;;;;;;5050290;28;20032;-76
2022/06/08 10:24:57;;;;;;;3.28;1.23;;;7.20;99.90;;;;;;5048795;28;20025;-81
2022/06/08 10:27:51;;;;;;;3.38;1.38;;;7.20;99.90;;;;;;5049589;28;20504;-76
2022/06/08 10:30:29;;;;;;;3.92;2.28;;;7.20;99.90;;;;;;5051608;28;20021;-82
2022/06/08 10:33:06;;;;;;;3.50;1.23;;;7.10;99.90;;;;;;5051501;28;20021;-80
2022/06/08 10:35:55;;;;;;;1.45;0.95;;;7.10;99.90;;;;;;5052201;28;20017;-81
2022/06/08 10:38:30;;;;;;;2.22;1.05;;;7.10;99.90;;;;;;5049330;28;20127;-78
2022/06/08 10:44:37;;;;;;;2.10;1.10;;;7.00;99.90;;;;;;5050881;28;20064;-79
2022/06/08 10:47:16;;;;;;;1.85;0.93;;;7.00;99.90;;;;;;5066198;28;20051;-81
2022/06/08 10:49:50;;;;;;;2.67;1.20;;;7.00;99.90;;;;;;5054394;28;20025;-80
2022/06/08 10:52:20;;;;;;;2.55;1.40;;;6.90;99.90;;;;;;5053420;28;20103;-79
2022/06/08 10:55:10;;;;;;;2.03;1.10;;;6.90;99.90;;;;;;5053310;28;20052;-79
2022/06/08 10:57:49;;;;;;;1.45;1.10;;;6.90;99.90;;;;;;5055306;28;20021;-79
2022/06/08 11:00:19;;;;;;;2.95;1.20;;;6.90;99.90;;;;;;5054716;28;20017;-81
2022/06/08 11:05:47;;;;;;;5.88;1.85;;;6.80;99.90;;;;;;5498699;23;20113;-81
2022/06/08 11:08:21;;;;;;;4.57;2.17;;;6.80;99.90;;;;;;5009612;28;20556;-80
2022/06/08 11:10:51;;;;;;;8.93;4.68;;;6.80;99.90;;;;;;5013283;28;20033;-81
2022/06/08 11:13:24;;;;;;;28.83;14.43;;;6.80;99.90;;;;;;5015174;28;20057;-81
2022/06/08 11:16:20;;;;;;;36.13;19.35;;;6.80;99.90;;;;;;5015510;28;20026;-82
2022/06/08 11:19:18;;;;;;;38.17;20.58;;;6.80;99.90;;;;;;5014658;28;20025;-82
2022/06/08 11:21:50;;;;;;;36.03;20.02;;;6.80;99.90;;;;;;5005712;28;20545;-81
2022/06/08 11:24:30;;;;;;;16.65;11.48;;;6.80;99.90;;;;;;5014897;28;20022;-81
2022/06/08 11:27:24;;;;;;;10.00;6.20;;;6.80;99.90;;;;;;5015964;28;20057;-83
2022/06/08 11:30:19;;;;;;;5.88;2.60;;;6.80;99.90;;;;;;5011701;28;20104;-81
2022/06/08 11:32:57;;;;;;;2.78;1.90;;;6.70;99.90;;;;;;5004387;28;20112;-82
2022/06/08 11:35:56;;;;;;;89.72;37.42;;;6.70;99.90;;;;;;5013071;28;20036;-81
2022/06/08 11:38:40;;;;;;;18.98;8.27;;;6.70;99.90;;;;;;5014257;28;20020;-81
2022/06/08 11:41:39;;;;;;;8.93;2.90;;;6.70;99.90;;;;;;5014519;28;20026;-82
2022/06/08 11:44:31;;;;;;;4.15;2.22;;;6.80;99.90;;;;;;5012151;28;20092;-82
2022/06/08 11:47:18;;;;;;;2.83;1.67;;;6.80;99.90;;;;;;5012587;28;20089;-81
2022/06/08 11:50:01;;;;;;;1.05;0.70;;;6.80;99.90;;;;;;5012636;28;20026;-83
2022/06/08 11:52:35;;;;;;;1.30;0.90;;;6.80;99.90;;;;;;5013012;28;20052;-82
2022/06/08 11:55:08;;;;;;;3.38;1.60;;;6.80;99.90;;;;;;5012430;28;20446;-82
2022/06/08 11:57:44;;;;;;;2.47;1.63;;;6.80;99.90;;;;;;5013312;28;20112;-80
2022/06/08 12:00:25;;;;;;;2.80;0.93;;;6.80;99.90;;;;;;5011791;28;20026;-80
2022/06/08 12:03:27;;;;;;;3.80;1.88;;;6.80;99.90;;;;;;5012669;28;20079;-79
2022/06/08 12:06:08;;;;;;;7.28;3.88;;;6.80;99.90;;;;;;5007578;28;20093;-79
2022/06/08 12:08:43;;;;;;;8.05;5.97;;;6.80;99.90;;;;;;5011105;28;20509;-80
2022/06/08 12:11:16;;;;;;;9.13;6.43;;;6.80;99.90;;;;;;5008334;28;20017;-81
2022/06/08 12:14:02;;;;;;;6.00;4.03;;;6.80;99.90;;;;;;5008479;28;20034;-84
2022/06/08 12:16:36;;;;;;;4.72;2.28;;;6.70;99.90;;;;;;5012349;28;20018;-80
2022/06/08 12:19:06;;;;;;;6.25;1.30;;;6.70;99.90;;;;;;5010236;28;20026;-78
2022/06/08 12:21:39;;;;;;;2.10;1.30;;;6.70;99.90;;;;;;5012281;28;20018;-80
2022/06/08 12:24:22;;;;;;;3.38;1.27;;;6.60;99.90;;;;;;5011807;28;20030;-77
2022/06/08 12:27:14;;;;;;;4.40;1.30;;;6.50;99.90;;;;;;5012090;28;20038;-79
2022/06/08 12:29:56;;;;;;;6.97;3.83;;;6.50;99.90;;;;;;5010977;28;20513;-82
2022/06/08 12:32:30;;;;;;;7.57;2.33;;;6.50;99.90;;;;;;5009151;28;20049;-82
2022/06/08 12:35:17;;;;;;;1.35;0.98;;;6.40;99.90;;;;;;5011326;28;20470;-83
2022/06/08 12:37:46;;;;;;;20.60;9.90;;;6.30;99.90;;;;;;5013942;28;20033;-82
2022/06/08 12:40:26;;;;;;;15.32;7.55;;;6.30;99.90;;;;;;5010197;28;20017;-80
2022/06/08 12:42:59;;;;;;;7.50;3.17;;;6.30;99.90;;;;;;5012338;28;20025;-81
2022/06/08 12:45:36;;;;;;;3.70;2.03;;;6.30;99.90;;;;;;5009952;28;20026;-81
2022/06/08 12:48:38;;;;;;;9.75;3.65;;;6.30;99.90;;;;;;5012049;28;20018;-82
2022/06/08 12:51:29;;;;;;;7.07;3.00;;;6.30;99.90;;;;;;4982128;28;20033;-81
2022/06/08 12:53:59;;;;;;;5.85;3.45;;;6.30;99.90;;;;;;5012899;28;20026;-83
2022/06/08 12:56:27;;;;;;;6.57;2.50;;;6.30;99.90;;;;;;5011354;28;20018;-82
2022/06/08 12:58:55;;;;;;;8.57;3.38;;;6.30;99.90;;;;;;5012387;28;20026;-80
2022/06/08 13:01:27;;;;;;;5.75;2.70;;;6.20;99.90;;;;;;5013802;28;20025;-80
2022/06/08 13:03:56;;;;;;;2.88;1.40;;;6.20;99.90;;;;;;5012103;28;20390;-81
2022/06/08 13:06:26;;;;;;;3.45;1.25;;;6.20;99.90;;;;;;5012479;28;20050;-79
2022/06/08 13:08:54;;;;;;;2.00;1.15;;;6.10;99.90;;;;;;5011259;28;20026;-80
2022/06/08 13:11:24;;;;;;;2.28;1.08;;;6.10;99.90;;;;;;5012127;28;20025;-81
2022/06/08 13:13:55;;;;;;;2.83;1.15;;;6.10;99.90;;;;;;5012108;28;20040;-79
2022/06/08 13:16:27;;;;;;;2.53;1.00;;;6.10;99.90;;;;;;5011563;28;20018;-80
2022/06/08 13:18:57;;;;;;;4.68;1.00;;;6.00;99.90;;;;;;5009484;28;20109;-80
2022/06/08 13:21:28;;;;;;;2.15;1.20;;;6.00;99.90;;;;;;5011731;28;20504;-80
2022/06/08 13:23:56;;;;;;;2.28;1.10;;;6.00;99.90;;;;;;5009373;28;20478;-80
2022/06/08 13:26:28;;;;;;;4.57;1.52;;;6.00;99.90;;;;;;5010568;28;20088;-80
2022/06/08 13:28:59;;;;;;;2.03;1.35;;;5.90;99.90;;;;;;5012433;28;20076;-81
2022/06/08 13:31:26;;;;;;;1.35;0.85;;;5.90;99.90;;;;;;5009077;28;20480;-76
2022/06/08 13:33:57;;;;;;;2.75;1.00;;;5.90;99.90;;;;;;5012233;28;20581;-80
2022/06/08 13:36:30;;;;;;;1.85;0.73;;;5.80;99.90;;;;;;5011589;28;20018;-80
2022/06/08 13:39:21;;;;;;;1.70;0.85;;;5.80;99.90;;;;;;5012964;28;20022;-75
2022/06/08 13:41:51;;;;;;;4.90;1.15;;;5.70;99.90;;;;;;5008302;28;20025;-85
2022/06/08 13:44:25;;;;;;;2.72;0.75;;;5.70;99.90;;;;;;5002575;28;20029;-83
2022/06/08 13:47:05;;;;;;;1.70;0.70;;;5.70;99.90;;;;;;5004359;28;20433;-81